createdAt,value
2023-04-04T11:35:46.685Z,1018.46
2023-04-04T11:36:46.597Z,1018.47
2023-04-04T11:37:46.569Z,1018.35
2023-04-04T11:38:46.555Z,1018.37
2023-04-04T11:39:46.531Z,1018.36
2023-04-04T11:40:46.493Z,1018.36
2023-04-04T11:41:46.482Z,1018.28
2023-04-04T11:42:46.484Z,1018.36
2023-04-04T11:43:46.456Z,1018.30
2023-04-04T11:44:46.407Z,1018.28
2023-04-04T11:45:46.439Z,1018.29
2023-04-04T11:46:46.386Z,1018.30
2023-04-04T11:47:46.426Z,1018.29
2023-04-04T11:48:46.345Z,1018.28
2023-04-04T11:49:46.334Z,1018.30
2023-04-04T11:50:46.303Z,1018.25
2023-04-04T11:51:46.302Z,1018.23
2023-04-04T11:52:46.310Z,1018.29
2023-04-04T11:53:46.254Z,1018.22
2023-04-04T11:54:46.232Z,1018.18
2023-04-04T11:55:46.217Z,1018.23
2023-04-04T11:56:46.188Z,1018.25
2023-04-04T11:57:46.188Z,1018.22
2023-04-04T11:58:46.152Z,1018.22
2023-04-04T11:59:46.203Z,1018.22
2023-04-04T12:00:46.108Z,1018.21
2023-04-04T12:01:46.103Z,1018.19
2023-04-04T12:02:46.138Z,1018.26
2023-04-04T12:03:46.110Z,1018.25
2023-04-04T12:04:46.086Z,1018.25
2023-04-04T12:05:46.088Z,1018.24
2023-04-04T12:06:45.994Z,1018.23
2023-04-04T12:07:45.991Z,1018.27
2023-04-04T12:08:45.974Z,1018.22
2023-04-04T12:09:45.978Z,1018.22
2023-04-04T12:10:45.952Z,1018.23
2023-04-04T12:11:45.920Z,1018.19
2023-04-04T12:12:45.918Z,1018.17
2023-04-04T12:13:45.901Z,1018.18
2023-04-04T12:14:45.887Z,1018.13
2023-04-04T12:15:45.880Z,1018.07
2023-04-04T12:16:45.824Z,1018.05
2023-04-04T12:17:46.044Z,1018.08
2023-04-04T12:18:45.802Z,1018.03
2023-04-04T12:19:45.797Z,1018.06
2023-04-04T12:20:45.762Z,1018.00
2023-04-04T12:21:45.763Z,1018.03
2023-04-04T12:22:45.746Z,1018.04
2023-04-04T12:23:45.733Z,1017.96
2023-04-04T12:24:45.691Z,1018.00
2023-04-04T12:25:45.680Z,1017.97
2023-04-04T12:26:45.678Z,1018.00
2023-04-04T12:27:45.656Z,1017.97
2023-04-04T12:28:45.644Z,1017.99
2023-04-04T12:29:45.631Z,1017.99
2023-04-04T12:30:45.607Z,1017.94
2023-04-04T12:31:45.622Z,1017.92
2023-04-04T12:32:45.605Z,1017.90
2023-04-04T12:33:45.574Z,1017.88
2023-04-04T12:34:48.818Z,1017.88
2023-04-04T12:35:45.538Z,1017.85
2023-04-04T12:36:45.492Z,1017.81
2023-04-04T12:37:45.498Z,1017.78
2023-04-04T12:38:45.480Z,1017.78
2023-04-04T12:39:45.455Z,1017.81
2023-04-04T12:40:45.431Z,1017.82
2023-04-04T12:41:45.439Z,1017.82
2023-04-04T12:42:45.434Z,1017.85
2023-04-04T12:43:45.417Z,1017.83
2023-04-04T12:44:45.376Z,1017.84
2023-04-04T12:45:45.379Z,1017.80
2023-04-04T12:46:47.830Z,1017.82
2023-04-04T12:47:45.351Z,1017.83
2023-04-04T12:48:45.316Z,1017.82
2023-04-04T12:49:45.360Z,1017.83
2023-04-04T12:50:45.279Z,1017.80
2023-04-04T12:51:45.278Z,1017.85
2023-04-04T12:52:46.138Z,1017.84
2023-04-04T12:53:45.227Z,1017.82
2023-04-04T12:54:46.989Z,1017.82
2023-04-04T12:55:45.218Z,1017.83
2023-04-04T12:56:45.208Z,1017.80
2023-04-04T12:57:45.178Z,1017.79
2023-04-04T12:58:47.105Z,1017.73
2023-04-04T12:59:45.157Z,1017.69
2023-04-04T13:00:45.136Z,1017.66
2023-04-04T13:01:45.145Z,1017.66
2023-04-04T13:02:45.150Z,1017.61
2023-04-04T13:03:45.125Z,1017.64
2023-04-04T13:04:45.099Z,1017.58
2023-04-04T13:05:45.071Z,1017.59
2023-04-04T13:06:45.066Z,1017.53
2023-04-04T13:07:45.085Z,1017.49
2023-04-04T13:08:45.018Z,1017.46
2023-04-04T13:09:45.011Z,1017.41
2023-04-04T13:10:44.986Z,1017.41
2023-04-04T13:11:44.982Z,1017.34
2023-04-04T13:12:44.958Z,1017.33
2023-04-04T13:13:45.029Z,1017.40
2023-04-04T13:14:44.931Z,1017.32
2023-04-04T13:15:44.923Z,1017.29
2023-04-04T13:16:44.920Z,1017.31
2023-04-04T13:17:44.915Z,1017.32
2023-04-04T13:18:44.913Z,1017.27
2023-04-04T13:19:44.878Z,1017.28
2023-04-04T13:20:44.874Z,1017.22
2023-04-04T13:21:44.826Z,1017.20
2023-04-04T13:22:44.829Z,1017.19
2023-04-04T13:23:44.839Z,1017.14
2023-04-04T13:24:44.803Z,1017.16
2023-04-04T13:25:44.790Z,1017.17
2023-04-04T13:26:44.805Z,1017.18
2023-04-04T13:27:44.786Z,1017.14
2023-04-04T13:28:44.797Z,1017.18
2023-04-04T13:29:44.764Z,1017.16
2023-04-04T13:30:44.773Z,1017.21
2023-04-04T13:31:44.763Z,1017.13
2023-04-04T13:32:44.803Z,1017.16
2023-04-04T13:33:44.716Z,1017.16
2023-04-04T13:34:44.702Z,1017.15
2023-04-04T13:35:44.685Z,1017.17
2023-04-04T13:36:44.753Z,1017.13
2023-04-04T13:37:44.668Z,1017.07
2023-04-04T13:38:44.674Z,1017.09
2023-04-04T13:39:44.690Z,1017.07
2023-04-04T13:40:44.674Z,1017.05
2023-04-04T13:41:44.619Z,1016.98
2023-04-04T13:42:44.618Z,1016.99
2023-04-04T13:43:44.596Z,1017.00
2023-04-04T13:44:44.631Z,1016.98
2023-04-04T13:45:44.623Z,1016.85
2023-04-04T13:46:44.594Z,1016.90
2023-04-04T13:47:44.570Z,1016.87
2023-04-04T13:48:44.552Z,1016.91
2023-04-04T13:49:44.543Z,1016.86
2023-04-04T13:50:44.537Z,1016.89
2023-04-04T13:51:44.509Z,1016.93
2023-04-04T13:52:45.230Z,1016.86
2023-04-04T13:53:44.505Z,1016.83
2023-04-04T13:54:44.515Z,1016.83
2023-04-04T13:56:01.519Z,1016.82
2023-04-04T13:56:44.461Z,1016.82
2023-04-04T13:57:44.458Z,1016.80
2023-04-04T13:58:44.476Z,1016.76
2023-04-04T13:59:44.439Z,1016.75
2023-04-04T14:00:44.415Z,1016.71
2023-04-04T14:01:44.419Z,1016.72
2023-04-04T14:02:44.481Z,1016.70
2023-04-04T14:03:44.404Z,1016.73
2023-04-04T14:04:44.408Z,1016.70
2023-04-04T14:05:44.374Z,1016.73
2023-04-04T14:06:44.375Z,1016.74
2023-04-04T14:07:44.335Z,1016.73
2023-04-04T14:08:44.330Z,1016.71
2023-04-04T14:09:44.326Z,1016.72
2023-04-04T14:10:44.307Z,1016.72
2023-04-04T14:11:44.311Z,1016.70
2023-04-04T14:12:44.303Z,1016.70
2023-04-04T14:13:44.286Z,1016.75
2023-04-04T14:14:44.297Z,1016.70
2023-04-04T14:15:44.507Z,1016.71
2023-04-04T14:16:44.267Z,1016.65
2023-04-04T14:17:44.247Z,1016.69
2023-04-04T14:18:44.226Z,1016.73
2023-04-04T14:19:44.241Z,1016.80
2023-04-04T14:20:44.229Z,1016.78
2023-04-04T14:21:44.220Z,1016.79
2023-04-04T14:22:44.206Z,1016.78
2023-04-04T14:23:44.175Z,1016.77
2023-04-04T14:24:44.200Z,1016.73
2023-04-04T14:25:44.180Z,1016.77
2023-04-04T14:26:44.169Z,1016.68
2023-04-04T14:27:44.132Z,1016.72
2023-04-04T14:28:44.132Z,1016.70
2023-04-04T14:29:44.148Z,1016.69
2023-04-04T14:30:44.118Z,1016.63
2023-04-04T14:31:44.201Z,1016.53
2023-04-04T14:32:44.187Z,1016.47
2023-04-04T14:33:44.095Z,1016.47
2023-04-04T14:34:44.088Z,1016.48
2023-04-04T14:35:44.138Z,1016.46
2023-04-04T14:36:44.100Z,1016.42
2023-04-04T14:37:44.067Z,1016.36
2023-04-04T14:38:44.042Z,1016.34
2023-04-04T14:39:44.043Z,1016.30
2023-04-04T14:40:44.044Z,1016.26
2023-04-04T14:41:44.030Z,1016.26
2023-04-04T14:42:44.010Z,1016.27
2023-04-04T14:43:44.018Z,1016.27
2023-04-04T14:44:44.021Z,1016.26
2023-04-04T14:45:43.995Z,1016.31
2023-04-04T14:46:44.049Z,1016.30
2023-04-04T14:47:44.007Z,1016.28
2023-04-04T14:48:43.961Z,1016.22
2023-04-04T14:49:43.984Z,1016.18
2023-04-04T14:50:43.966Z,1016.13
2023-04-04T14:51:43.932Z,1016.06
2023-04-04T14:52:43.931Z,1016.13
2023-04-04T14:53:43.939Z,1016.19
2023-04-04T14:54:43.925Z,1016.10
2023-04-04T14:55:43.924Z,1016.19
2023-04-04T14:56:43.920Z,1016.15
2023-04-04T14:58:01.400Z,1016.11
2023-04-04T14:58:43.901Z,1016.15
2023-04-04T14:59:43.878Z,1016.18
2023-04-04T15:00:43.878Z,1016.14
2023-04-04T15:01:44.006Z,1016.14
2023-04-04T15:02:43.890Z,1016.08
2023-04-04T15:03:43.856Z,1016.14
2023-04-04T15:04:43.981Z,1016.06
2023-04-04T15:05:44.076Z,1015.99
2023-04-04T15:06:43.827Z,1016.01
2023-04-04T15:07:43.801Z,1016.02
2023-04-04T15:08:43.837Z,1015.95
2023-04-04T15:09:43.817Z,1015.92
2023-04-04T15:10:43.827Z,1015.92
2023-04-04T15:11:43.768Z,1015.94
2023-04-04T15:12:43.800Z,1015.93
2023-04-04T15:13:43.748Z,1015.92
2023-04-04T15:14:43.763Z,1015.88
2023-04-04T15:15:43.772Z,1015.87
2023-04-04T15:16:43.787Z,1015.84
2023-04-04T15:17:43.747Z,1015.83
2023-04-04T15:18:43.736Z,1015.86
2023-04-04T15:19:43.721Z,1015.77
2023-04-04T15:20:44.067Z,1015.80
2023-04-04T16:12:29.206Z,1015.89
2023-04-04T16:13:29.175Z,1015.91
2023-04-04T16:14:29.175Z,1015.84
2023-04-04T16:15:29.163Z,1015.87
2023-04-04T16:16:29.208Z,1015.83
2023-04-04T16:17:29.829Z,1015.85
2023-04-04T16:18:29.084Z,1015.83
2023-04-04T16:19:29.061Z,1015.83
2023-04-04T16:20:29.065Z,1015.76
2023-04-04T16:21:29.049Z,1015.66
2023-04-04T16:22:29.044Z,1015.48
2023-04-04T16:23:29.013Z,1015.45
2023-04-04T16:24:29.000Z,1015.51
2023-04-04T16:25:29.013Z,1015.55
2023-04-04T16:26:29.005Z,1015.57
2023-04-04T16:27:28.969Z,1015.61
2023-04-04T16:28:28.972Z,1015.66
2023-04-04T16:29:28.924Z,1015.61
2023-04-04T16:30:53.626Z,1015.73
2023-04-04T16:33:02.769Z,1015.64
2023-04-04T16:34:02.698Z,1015.54
2023-04-04T16:35:02.710Z,1015.44
2023-04-04T16:38:29.000Z,1015.32
2023-04-04T16:39:28.941Z,1015.25
